Time;durP1;ratioP1;P1;durP2;ratioP2;P2;SDS_P1;SDS_P2;PMS_P1;PMS_P2;Temp;Humidity;BMP_temperature;BMP_pressure;BME280_temperature;BME280_humidity;BME280_pressure;Samples;Min_cycle;Max_cycle;Signal;HPM_P1;HPM_P2
2023/04/03 08:12:20;;;;;;;8.93;2.55;;;;;;;21.76;37.41;102397.94;5113416;27;20472;-49
2023/04/03 08:14:47;;;;;;;8.45;2.45;;;;;;;22.69;35.50;102388.84;5105247;28;20069;-43
2023/04/03 08:17:16;;;;;;;9.20;2.33;;;;;;;23.39;34.55;102389.91;5104911;28;20104;-49
2023/04/03 08:19:44;;;;;;;10.00;2.50;;;;;;;23.89;33.60;102387.38;5108991;28;20078;-51
2023/04/03 08:22:11;;;;;;;8.10;2.60;;;;;;;24.23;33.01;102388.59;5107775;28;20023;-49
2023/04/03 08:24:38;;;;;;;13.55;4.35;;;;;;;24.46;32.09;102380.59;5108805;28;20020;-44
2023/04/03 08:27:06;;;;;;;15.50;4.45;;;;;;;24.75;32.32;102395.56;5099635;28;20021;-44
2023/04/03 08:29:33;;;;;;;12.18;3.20;;;;;;;24.83;31.68;102392.34;5108895;28;20024;-45
2023/04/03 08:32:00;;;;;;;46.25;7.47;;;;;;;24.95;31.84;102401.44;5108971;28;20054;-52
2023/04/03 08:34:28;;;;;;;37.22;6.38;;;;;;;24.97;31.61;102389.25;5109186;28;20028;-49
2023/04/03 08:36:55;;;;;;;54.10;7.30;;;;;;;25.02;31.70;102392.91;5101161;28;20031;-45
2023/04/03 08:39:23;;;;;;;43.47;6.22;;;;;;;25.03;31.81;102392.09;5105967;28;20071;-45
2023/04/03 08:41:50;;;;;;;44.65;6.07;;;;;;;25.14;31.80;102389.78;5108621;28;20036;-46
2023/04/03 08:44:49;;;;;;;41.15;6.22;;;;;;;25.22;31.05;102379.53;5108834;28;20020;-50
2023/04/03 08:47:39;;;;;;;37.08;7.43;;;;;;;25.30;31.15;102386.78;5098240;28;20141;-43
2023/04/03 08:50:14;;;;;;;28.38;4.82;;;;;;;25.27;31.12;102391.94;5080456;28;20040;-52
2023/04/03 08:52:52;;;;;;;24.90;5.95;;;;;;;25.34;30.89;102386.00;5088328;28;20024;-49
2023/04/03 08:55:38;;;;;;;39.20;5.78;;;;;;;25.42;30.73;102378.38;5089751;28;20028;-47
2023/04/03 08:58:09;;;;;;;30.60;5.25;;;;;;;25.40;30.70;102374.78;5087553;28;20056;-46
2023/04/03 09:00:57;;;;;;;27.95;5.60;;;;;;;25.45;30.86;102373.22;5088164;28;20107;-44
2023/04/03 09:03:25;;;;;;;30.83;4.93;;;;;;;25.48;30.37;102375.06;5087652;28;20064;-47
2023/04/03 09:05:58;;;;;;;24.05;5.47;;;;;;;25.45;30.51;102382.84;5089425;28;20051;-49
2023/04/03 09:08:58;;;;;;;17.88;4.28;;;;;;;25.24;31.12;102367.28;5087295;28;20051;-49
2023/04/03 09:11:46;;;;;;;18.02;3.97;;;;;;;25.31;30.80;102353.50;5082001;28;20056;-52
2023/04/03 09:14:23;;;;;;;14.32;3.78;;;;;;;25.37;31.19;102358.06;5089449;28;20021;-48
2023/04/03 09:16:57;;;;;;;18.05;3.72;;;;;;;25.49;30.61;102358.44;5089388;28;20027;-51
2023/04/03 09:19:56;;;;;;;20.70;4.10;;;;;;;25.59;30.25;102359.59;5089158;28;20031;-49
2023/04/03 09:22:28;;;;;;;17.70;3.00;;;;;;;25.48;30.06;102354.94;5075495;28;20036;-49
2023/04/03 09:25:15;;;;;;;10.02;3.38;;;;;;;25.44;30.44;102360.94;5074492;28;20025;-49
2023/04/03 09:27:43;;;;;;;14.30;2.83;;;;;;;25.43;30.34;102355.66;5072727;28;20123;-44
2023/04/03 09:30:16;;;;;;;13.05;3.00;;;;;;;25.46;30.35;102350.47;5075888;28;20029;-49
2023/04/03 09:32:46;;;;;;;11.60;3.22;;;;;;;25.52;30.26;102353.28;5074150;28;20035;-49
2023/04/03 09:35:22;;;;;;;18.77;4.90;;;;;;;25.55;29.69;102353.34;5075747;28;20021;-49
2023/04/03 09:37:52;;;;;;;11.65;3.63;;;;;;;25.55;29.66;102357.75;5074295;28;20397;-49
2023/04/03 09:40:34;;;;;;;18.95;5.40;;;;;;;25.50;30.00;102351.44;5075269;28;20457;-51
2023/04/03 09:43:24;;;;;;;16.92;5.15;;;;;;;25.48;29.97;102347.03;5075154;28;20085;-47
2023/04/03 09:45:52;;;;;;;16.77;4.28;;;;;;;25.54;29.73;102351.56;5080196;28;20112;-44
2023/04/03 09:48:23;;;;;;;10.38;4.20;;;;;;;25.53;29.77;102356.81;5077895;28;20107;-51
2023/04/03 09:50:55;;;;;;;10.60;4.10;;;;;;;25.49;30.06;102342.66;5074765;28;20432;-50
2023/04/03 09:53:43;;;;;;;11.70;3.78;;;;;;;25.61;30.30;102347.38;5074754;28;20082;-46
2023/04/03 09:56:16;;;;;;;10.93;4.38;;;;;;;25.61;30.06;102342.13;5072904;28;20031;-46
2023/04/03 09:58:48;;;;;;;12.77;3.88;;;;;;;25.67;29.81;102336.16;5074229;28;20028;-48
2023/04/03 10:01:36;;;;;;;11.40;3.58;;;;;;;25.61;30.05;102329.91;5073399;28;20028;-49
2023/04/03 10:04:09;;;;;;;13.88;3.70;;;;;;;25.61;30.35;102344.75;5067746;28;20037;-48
2023/04/03 10:06:43;;;;;;;10.90;3.58;;;;;;;25.58;30.34;102340.31;5073337;28;20032;-48
2023/04/03 10:09:31;;;;;;;12.32;3.05;;;;;;;25.66;30.69;102337.91;5073862;28;20496;-46
2023/04/03 10:12:01;;;;;;;13.13;3.30;;;;;;;25.68;30.90;102337.94;5065854;28;20135;-44
2023/04/03 10:14:30;;;;;;;13.18;3.08;;;;;;;25.61;30.95;102335.16;5074482;28;20159;-46
2023/04/03 10:17:16;;;;;;;10.88;2.85;;;;;;;25.55;30.95;102331.47;5076529;28;20031;-46
2023/04/03 10:19:53;;;;;;;12.07;3.25;;;;;;;25.55;30.98;102324.47;5074136;28;20039;-44
2023/04/03 10:22:48;;;;;;;12.38;3.42;;;;;;;25.51;30.03;102326.97;5074385;28;20039;-48
2023/04/03 10:25:36;;;;;;;8.45;3.28;;;;;;;25.43;30.96;102326.75;5074076;28;20469;-48
2023/04/03 10:28:12;;;;;;;10.95;2.92;;;;;;;25.54;30.84;102320.03;5078570;28;20036;-48
2023/04/03 10:31:06;;;;;;;9.57;2.72;;;;;;;25.46;30.41;102311.06;5094196;28;20035;-46
2023/04/03 10:34:12;;;;;;;7.80;2.22;;;;;;;25.52;30.67;102313.84;5090675;28;20047;-46
2023/04/03 10:36:47;;;;;;;9.25;3.15;;;;;;;25.57;30.09;102324.50;5093035;28;20024;-47
2023/04/03 10:39:28;;;;;;;10.40;3.25;;;;;;;25.59;30.20;102305.31;5089875;28;20397;-47
2023/04/03 10:42:21;;;;;;;11.07;3.03;;;;;;;25.35;30.26;102305.47;5072732;28;20166;-47
2023/04/03 10:45:09;;;;;;;7.10;3.08;;;;;;;25.29;30.13;102305.28;5074171;28;20032;-44
2023/04/03 10:48:08;;;;;;;15.95;3.20;;;;;;;25.28;30.18;102291.28;5078194;28;20036;-52
2023/04/03 10:51:01;;;;;;;7.70;2.58;;;;;;;25.36;29.79;102295.84;5092595;28;20043;-43
2023/04/03 10:53:36;;;;;;;9.90;3.00;;;;;;;25.38;29.28;102294.16;5077958;28;20027;-46
2023/04/03 10:56:37;;;;;;;9.00;2.88;;;;;;;25.34;29.17;102290.56;5073439;28;20093;-44
2023/04/03 10:59:25;;;;;;;8.40;2.70;;;;;;;25.33;29.72;102288.78;5089139;28;20028;-43
2023/04/03 11:01:58;;;;;;;9.23;2.45;;;;;;;25.40;29.78;102293.34;5090139;28;20390;-49
2023/04/03 11:04:30;;;;;;;5.82;2.22;;;;;;;25.39;29.34;102288.06;5094011;28;20107;-43
2023/04/03 11:07:05;;;;;;;10.45;3.55;;;;;;;25.43;29.54;102293.47;5091159;28;20028;-49
2023/04/03 11:09:37;;;;;;;9.55;3.63;;;;;;;25.41;29.61;102281.13;5072800;28;20024;-45
2023/04/03 11:12:13;;;;;;;8.63;3.53;;;;;;;25.42;29.40;102273.31;5055318;28;20041;-49
2023/04/03 11:14:42;;;;;;;8.85;3.17;;;;;;;25.42;29.38;102277.69;5073554;28;20025;-45
2023/04/03 11:17:32;;;;;;;6.63;2.80;;;;;;;25.38;29.31;102270.53;5071876;28;20078;-48
2023/04/03 11:20:07;;;;;;;10.32;3.70;;;;;;;25.39;29.70;102274.94;5065594;28;20363;-46
2023/04/03 11:22:40;;;;;;;9.05;2.40;;;;;;;25.44;29.43;102268.97;5071834;28;20024;-44
2023/04/03 11:25:26;;;;;;;7.72;2.35;;;;;;;25.45;29.83;102272.50;5073097;28;20032;-48
2023/04/03 11:27:57;;;;;;;10.07;3.05;;;;;;;25.47;29.91;102270.81;5071283;28;20052;-51
2023/04/03 11:30:33;;;;;;;8.15;3.13;;;;;;;25.47;29.93;102262.94;5073179;28;20032;-44
2023/04/03 11:33:07;;;;;;;9.48;2.78;;;;;;;25.52;29.96;102260.44;5072941;28;20025;-46
2023/04/03 11:35:34;;;;;;;11.00;3.17;;;;;;;25.55;29.91;102258.78;5072806;28;20029;-48
2023/04/03 11:38:06;;;;;;;5.00;2.45;;;;;;;25.51;30.19;102270.03;5071560;28;20397;-43
2023/04/03 11:40:35;;;;;;;7.78;2.58;;;;;;;25.50;30.17;102249.00;5073125;28;20169;-47
2023/04/03 11:43:08;;;;;;;8.25;2.50;;;;;;;25.55;30.33;102247.38;5072738;28;20020;-44
2023/04/03 11:45:39;;;;;;;6.68;2.95;;;;;;;25.46;29.99;102248.03;5072552;28;20106;-46
2023/04/03 11:48:31;;;;;;;7.57;2.28;;;;;;;25.43;31.07;102242.69;5073070;28;20031;-44
2023/04/03 11:51:21;;;;;;;6.50;2.20;;;;;;;25.40;29.64;102242.56;5072836;28;20115;-51
2023/04/03 11:53:48;;;;;;;5.50;2.00;;;;;;;25.29;29.98;102240.53;5066000;28;20041;-49
2023/04/03 11:56:25;;;;;;;6.50;2.08;;;;;;;25.14;30.00;102240.13;5071427;28;20028;-51
2023/04/03 11:59:13;;;;;;;11.40;2.78;;;;;;;25.01;29.28;102237.13;5072626;28;20062;-44
2023/04/03 12:02:03;;;;;;;7.13;3.05;;;;;;;24.86;29.53;102240.19;5072882;28;20021;-49
2023/04/03 12:04:32;;;;;;;8.98;2.80;;;;;;;24.72;29.25;102239.78;5072488;28;20020;-48
2023/04/03 12:07:20;;;;;;;7.63;2.80;;;;;;;24.73;29.24;102228.44;5072725;28;20031;-46
2023/04/03 12:09:47;;;;;;;11.20;2.92;;;;;;;24.86;29.37;102228.81;5072686;28;20025;-50
2023/04/03 12:12:36;;;;;;;7.90;2.65;;;;;;;24.81;29.05;102220.78;5072269;28;20059;-48
2023/04/03 12:15:21;;;;;;;7.70;2.63;;;;;;;24.94;29.87;102227.31;5072550;28;20024;-48
2023/04/03 12:17:51;;;;;;;7.10;2.50;;;;;;;24.64;29.27;102217.66;5071228;28;20016;-47
2023/04/03 12:20:58;;;;;;;10.75;2.25;;;;;;;24.61;30.18;102221.91;5072232;28;20043;-51
2023/04/03 12:23:34;;;;;;;8.27;2.42;;;;;;;24.60;29.34;102221.03;5071692;28;20036;-50
2023/04/03 12:26:25;;;;;;;7.93;2.38;;;;;;;24.72;28.67;102215.28;5071211;28;20031;-51
2023/04/03 12:28:55;;;;;;;9.07;2.53;;;;;;;24.66;28.95;102215.06;5072367;28;20051;-47
2023/04/03 12:31:26;;;;;;;6.10;2.53;;;;;;;24.42;28.27;102219.63;5071495;28;20036;-45
2023/04/03 12:34:21;;;;;;;11.90;3.03;;;;;;;24.48;29.28;102221.53;5070860;28;20025;-48
2023/04/03 12:36:50;;;;;;;6.68;2.97;;;;;;;24.62;29.54;102219.34;5064972;28;20109;-48
2023/04/03 12:39:44;;;;;;;8.88;2.75;;;;;;;24.42;28.85;102214.38;5072302;28;20025;-43
2023/04/03 12:42:33;;;;;;;14.48;3.45;;;;;;;24.45;30.22;102200.44;5072600;28;20056;-43
2023/04/03 12:45:10;;;;;;;7.97;2.60;;;;;;;24.63;28.91;102209.72;5055208;28;20032;-49
2023/04/03 12:47:40;;;;;;;9.10;3.15;;;;;;;24.37;29.14;102202.84;5071224;28;20028;-46
2023/04/03 12:50:32;;;;;;;7.28;2.40;;;;;;;24.19;29.19;102204.88;5071062;28;20474;-43
2023/04/03 12:53:05;;;;;;;8.77;2.40;;;;;;;24.16;28.40;102204.81;5072679;28;20033;-48
2023/04/03 12:55:34;;;;;;;6.15;2.42;;;;;;;24.17;29.44;102196.97;5072512;28;20016;-49
2023/04/03 12:58:26;;;;;;;8.10;2.83;;;;;;;24.45;29.53;102195.19;5074623;28;20028;-47
2023/04/03 13:01:14;;;;;;;8.40;2.60;;;;;;;24.54;29.46;102186.72;5076245;28;20028;-48
2023/04/03 13:03:46;;;;;;;7.38;2.88;;;;;;;24.39;29.13;102189.78;5050285;28;20032;-42
2023/04/03 13:06:24;;;;;;;10.02;2.83;;;;;;;24.45;29.60;102181.22;5074909;28;20025;-47
2023/04/03 13:08:51;;;;;;;10.77;2.55;;;;;;;24.54;29.05;102190.25;5076716;28;20812;-46
2023/04/03 13:11:20;;;;;;;7.72;2.72;;;;;;;24.36;29.26;102185.31;5088322;28;20056;-45
2023/04/03 13:14:00;;;;;;;11.10;3.60;;;;;;;24.31;29.04;102180.78;5095285;28;20052;-48
2023/04/03 13:16:27;;;;;;;8.65;3.20;;;;;;;24.10;29.41;102182.78;5095304;28;20024;-49
2023/04/03 13:18:55;;;;;;;7.07;2.55;;;;;;;24.22;29.23;102173.50;5094127;28;20039;-47
2023/04/03 13:21:28;;;;;;;7.68;3.47;;;;;;;24.37;29.73;102171.38;5094848;28;20028;-46
2023/04/03 13:23:58;;;;;;;8.25;3.05;;;;;;;24.45;29.67;102170.72;5095314;28;20077;-46
2023/04/03 13:26:29;;;;;;;8.10;3.00;;;;;;;24.37;29.38;102167.88;5094976;28;20096;-47
2023/04/03 13:29:03;;;;;;;9.20;2.88;;;;;;;24.43;29.38;102158.44;5075520;28;20377;-48
2023/04/03 13:31:34;;;;;;;10.57;2.72;;;;;;;24.35;29.68;102157.31;5090638;28;20380;-50
2023/04/03 13:34:22;;;;;;;10.32;3.08;;;;;;;24.53;29.99;102156.09;5090736;28;20028;-45
2023/04/03 13:37:03;;;;;;;8.48;3.42;;;;;;;24.62;30.13;102161.63;5093404;28;20031;-48
2023/04/03 13:39:33;;;;;;;8.65;2.80;;;;;;;24.56;29.82;102148.31;5090719;28;20024;-43
2023/04/03 13:42:16;;;;;;;8.57;2.75;;;;;;;24.72;29.91;102160.19;5090026;28;20026;-49
2023/04/03 13:44:44;;;;;;;7.75;2.58;;;;;;;24.69;29.98;102162.69;5092526;28;20026;-48
2023/04/03 13:47:19;;;;;;;11.35;3.20;;;;;;;24.51;29.60;102153.44;5094759;28;20024;-44
2023/04/03 13:50:19;;;;;;;7.20;2.95;;;;;;;24.52;30.02;102149.06;5093195;28;20020;-44
2023/04/03 13:52:51;;;;;;;8.25;2.42;;;;;;;24.54;30.43;102145.66;5091840;28;20032;-46
2023/04/03 13:55:21;;;;;;;4.57;2.08;;;;;;;24.71;30.17;102146.16;5093457;28;20446;-43
2023/04/03 13:57:52;;;;;;;6.38;2.58;;;;;;;24.76;30.30;102145.41;5094772;28;20038;-48
2023/04/03 14:00:50;;;;;;;5.15;2.20;;;;;;;24.79;30.21;102138.50;5091872;28;20024;-44
2023/04/03 14:03:24;;;;;;;7.47;3.05;;;;;;;24.78;30.08;102147.22;5086539;28;20457;-51
2023/04/03 14:05:53;;;;;;;10.20;3.63;;;;;;;24.68;30.60;102143.41;5094517;28;20031;-43
2023/04/03 14:08:22;;;;;;;8.82;3.40;;;;;;;24.74;30.49;102140.09;5094389;28;20025;-48
2023/04/03 14:10:51;;;;;;;7.32;3.67;;;;;;;24.72;30.29;102140.06;5093242;28;20052;-43
2023/04/03 14:13:21;;;;;;;11.68;3.28;;;;;;;24.76;30.60;102142.78;5093684;28;20165;-44
2023/04/03 14:15:50;;;;;;;10.85;3.08;;;;;;;24.75;30.76;102135.75;5093002;28;20073;-48
2023/04/03 14:18:20;;;;;;;9.13;3.00;;;;;;;24.73;30.65;102138.34;5092927;28;20082;-43
2023/04/03 14:20:51;;;;;;;4.05;2.33;;;;;;;24.79;30.32;102135.88;5088306;28;20032;-45
2023/04/03 14:23:19;;;;;;;8.07;2.80;;;;;;;24.80;30.74;102129.78;5090101;28;20115;-48
2023/04/03 14:25:48;;;;;;;6.18;2.35;;;;;;;24.70;30.54;102117.25;5094168;28;20031;-51
2023/04/03 14:28:20;;;;;;;6.10;2.63;;;;;;;24.82;30.58;102125.47;5093022;28;20021;-43
2023/04/03 14:30:50;;;;;;;5.05;2.33;;;;;;;24.70;30.84;102112.00;5092122;28;20027;-50
2023/04/03 14:33:21;;;;;;;7.25;2.53;;;;;;;24.71;30.80;102111.16;5093417;28;20384;-47
2023/04/03 14:35:49;;;;;;;6.35;2.22;;;;;;;24.79;30.68;102111.38;5087759;28;20028;-44
2023/04/03 14:38:27;;;;;;;5.72;2.20;;;;;;;24.66;31.06;102110.13;5092849;28;20457;-46
2023/04/03 14:40:55;;;;;;;5.43;2.30;;;;;;;24.60;31.37;102099.44;5091048;28;20508;-49
2023/04/03 14:43:22;;;;;;;5.88;2.20;;;;;;;24.73;31.12;102105.09;5093166;28;20469;-49
2023/04/03 14:45:50;;;;;;;5.05;2.30;;;;;;;24.80;30.96;102110.53;5093667;28;20026;-48
2023/04/03 14:48:21;;;;;;;7.40;2.58;;;;;;;24.85;31.15;102108.91;5092518;28;20031;-46
2023/04/03 14:50:49;;;;;;;4.65;2.15;;;;;;;24.83;31.19;102115.84;5091921;28;20385;-48
2023/04/03 14:53:22;;;;;;;6.95;2.53;;;;;;;24.84;31.52;102110.66;5088633;28;20052;-45
2023/04/03 14:55:50;;;;;;;5.75;2.58;;;;;;;24.88;31.74;102112.53;5093265;28;20063;-46
2023/04/03 14:58:20;;;;;;;4.32;2.20;;;;;;;24.89;31.44;102113.41;5093321;28;20384;-47
2023/04/03 15:00:47;;;;;;;7.78;2.40;;;;;;;24.87;31.53;102113.38;5091083;28;20073;-43
2023/04/03 15:03:18;;;;;;;6.55;2.67;;;;;;;24.86;31.55;102106.34;5093122;28;20031;-50
2023/04/03 15:05:46;;;;;;;8.52;2.97;;;;;;;24.86;31.38;102100.19;5093216;28;20032;-44
2023/04/03 15:08:26;;;;;;;6.78;3.00;;;;;;;24.92;31.52;102102.09;5093263;28;20032;-44
2023/04/03 15:10:55;;;;;;;10.00;2.65;;;;;;;24.94;31.34;102097.78;5086128;28;20375;-44
2023/04/03 15:13:24;;;;;;;9.63;2.55;;;;;;;24.97;31.45;102095.25;5093837;28;20054;-47
2023/04/03 15:15:53;;;;;;;6.05;2.25;;;;;;;24.96;31.57;102083.88;5093750;28;20028;-44
2023/04/03 15:18:25;;;;;;;3.63;1.73;;;;;;;25.01;31.51;102082.22;5093907;28;20028;-43
2023/04/03 15:20:55;;;;;;;4.22;2.05;;;;;;;25.06;31.58;102085.00;5093443;28;20043;-48
2023/04/03 15:23:25;;;;;;;7.18;1.88;;;;;;;25.07;31.34;102078.00;5093623;28;20334;-48
2023/04/03 15:25:55;;;;;;;3.30;1.80;;;;;;;25.08;31.67;102079.78;5093596;28;20035;-48
2023/04/03 15:28:36;;;;;;;4.57;1.75;;;;;;;25.07;31.63;102071.00;5093752;28;20024;-48
2023/04/03 15:31:05;;;;;;;5.57;2.47;;;;;;;25.12;31.41;102081.63;5092453;28;20477;-49
2023/04/03 15:33:34;;;;;;;3.38;2.13;;;;;;;25.18;31.42;102071.28;5093633;28;20024;-48
2023/04/03 15:36:03;;;;;;;5.65;2.40;;;;;;;25.19;31.58;102070.41;5093377;28;20035;-49
2023/04/03 15:38:31;;;;;;;5.93;2.17;;;;;;;25.20;31.58;102071.31;5093565;28;20027;-47
2023/04/03 15:41:00;;;;;;;6.50;2.20;;;;;;;25.16;31.38;102051.97;5092205;28;20028;-50
2023/04/03 15:43:28;;;;;;;5.75;2.10;;;;;;;25.22;31.51;102062.63;5093302;28;20019;-47
2023/04/03 15:46:00;;;;;;;5.20;2.30;;;;;;;25.21;31.67;102059.97;5093282;28;20099;-48
2023/04/03 15:48:29;;;;;;;4.20;2.22;;;;;;;25.15;31.56;102063.34;5093445;28;20140;-42
2023/04/03 15:50:59;;;;;;;4.20;2.03;;;;;;;25.12;31.80;102065.88;5093233;28;20127;-47
2023/04/03 15:53:27;;;;;;;4.05;2.17;;;;;;;25.12;31.74;102058.88;5092325;28;20385;-43
2023/04/03 15:55:56;;;;;;;3.35;1.92;;;;;;;25.13;31.99;102058.03;5093353;28;20032;-49
2023/04/03 15:58:25;;;;;;;3.75;1.80;;;;;;;25.13;31.75;102065.03;5093100;28;20032;-42
2023/04/03 16:00:53;;;;;;;5.78;1.80;;;;;;;25.18;31.84;102052.88;5093176;28;20457;-48
2023/04/03 16:03:24;;;;;;;5.18;1.83;;;;;;;25.17;31.72;102057.28;5091317;28;20097;-49
2023/04/03 16:05:52;;;;;;;2.90;1.75;;;;;;;25.22;31.81;102057.38;5091876;28;20354;-51
2023/04/03 16:08:21;;;;;;;5.20;2.80;;;;;;;25.17;31.94;102048.47;5093055;28;20051;-48
2023/04/03 16:10:50;;;;;;;6.07;3.03;;;;;;;25.20;31.89;102053.81;5092865;28;20400;-51
2023/04/03 16:13:19;;;;;;;5.97;3.20;;;;;;;25.17;31.83;102056.34;5091507;28;20457;-43
2023/04/03 16:15:48;;;;;;;4.68;2.50;;;;;;;25.20;32.17;102059.06;5092664;28;20024;-44
2023/04/03 16:18:18;;;;;;;5.85;3.00;;;;;;;25.25;31.82;102060.09;5091714;28;20039;-45
2023/04/03 16:20:46;;;;;;;5.13;3.00;;;;;;;25.23;32.09;102047.78;5093291;28;20032;-42
2023/04/03 16:23:15;;;;;;;4.85;2.47;;;;;;;25.25;31.92;102044.31;5092893;28;20454;-42
2023/04/03 16:25:46;;;;;;;5.53;2.50;;;;;;;25.26;31.78;102043.47;5092716;28;20085;-48
2023/04/03 16:28:15;;;;;;;5.88;2.90;;;;;;;25.27;32.15;102042.63;5093091;28;20517;-48
2023/04/03 16:30:44;;;;;;;4.97;2.63;;;;;;;25.29;32.15;102040.03;5091838;28;20039;-42
2023/04/03 16:33:14;;;;;;;5.60;2.40;;;;;;;25.33;31.98;102048.00;5095389;28;20069;-48
2023/04/03 16:35:43;;;;;;;5.57;2.60;;;;;;;25.30;32.03;102047.06;5097136;28;20492;-51
2023/04/03 16:38:12;;;;;;;3.83;2.13;;;;;;;25.13;32.17;102037.03;5096965;28;20055;-42
2023/04/03 16:40:40;;;;;;;6.30;2.40;;;;;;;25.27;32.16;102044.34;5097043;28;20028;-48
2023/04/03 16:43:08;;;;;;;2.42;1.92;;;;;;;25.32;32.19;102050.63;5096757;28;20020;-42
2023/04/03 16:45:37;;;;;;;4.95;2.30;;;;;;;25.37;31.81;102053.34;5096631;28;20499;-48
2023/04/03 16:48:05;;;;;;;6.88;2.13;;;;;;;25.38;32.12;102040.28;5095677;28;20024;-48
2023/04/03 16:50:35;;;;;;;5.05;2.08;;;;;;;25.37;31.88;102046.38;5078963;28;20028;-46
2023/04/03 16:53:04;;;;;;;3.97;2.08;;;;;;;25.30;31.95;102049.69;5096651;28;20036;-48
2023/04/03 16:55:32;;;;;;;3.63;1.95;;;;;;;25.25;32.36;102044.31;5096629;28;20428;-48
2023/04/03 16:58:01;;;;;;;3.20;1.83;;;;;;;25.34;32.10;102056.78;5096752;28;20027;-48
2023/04/03 17:00:32;;;;;;;2.65;1.63;;;;;;;25.38;32.08;102057.75;5096553;28;20434;-48
2023/04/03 17:03:01;;;;;;;3.17;1.60;;;;;;;25.29;32.37;102056.69;5096394;28;20035;-49
2023/04/03 17:05:30;;;;;;;4.25;2.63;;;;;;;25.20;32.51;102053.81;5095218;28;20027;-42
2023/04/03 17:08:00;;;;;;;5.15;2.50;;;;;;;25.34;32.26;102057.66;5096639;28;20043;-49
2023/04/03 17:10:29;;;;;;;5.35;2.42;;;;;;;25.34;32.42;102059.44;5096496;28;20395;-48
2023/04/03 17:12:58;;;;;;;5.50;2.28;;;;;;;25.34;32.19;102059.44;5096359;28;20028;-48
2023/04/03 17:15:27;;;;;;;4.85;2.35;;;;;;;25.20;32.74;102061.69;5096333;28;20028;-46
2023/04/03 17:17:55;;;;;;;5.45;2.60;;;;;;;25.04;33.22;102057.81;5096075;28;20051;-46
2023/04/03 17:20:25;;;;;;;5.72;2.50;;;;;;;24.94;32.94;102063.66;5094474;28;20035;-42
2023/04/03 17:22:54;;;;;;;9.38;2.20;;;;;;;24.99;32.87;102060.28;5096072;28;20028;-47
2023/04/03 17:25:23;;;;;;;4.43;2.50;;;;;;;24.87;33.47;102057.34;5095824;28;20024;-48
2023/04/03 17:27:51;;;;;;;5.72;2.05;;;;;;;24.85;33.27;102059.03;5096099;28;20385;-48
2023/04/03 17:30:19;;;;;;;3.53;2.08;;;;;;;24.88;33.26;102060.03;5090039;28;20545;-48
2023/04/03 17:32:46;;;;;;;3.42;1.98;;;;;;;24.79;33.42;102057.16;5084033;28;20023;-48
2023/04/03 17:35:14;;;;;;;3.65;2.10;;;;;;;24.72;33.79;102061.34;5094896;28;20028;-47
2023/04/03 17:37:43;;;;;;;4.22;2.22;;;;;;;24.71;33.63;102066.56;5092795;28;20385;-46
2023/04/03 17:40:13;;;;;;;4.85;2.35;;;;;;;24.71;33.59;102054.31;5095017;28;20395;-51
2023/04/03 17:42:41;;;;;;;6.53;2.67;;;;;;;24.78;33.51;102062.38;5093313;28;20521;-48
2023/04/03 17:45:09;;;;;;;6.65;2.95;;;;;;;24.91;33.05;102050.44;5094857;28;20077;-48
2023/04/03 17:47:38;;;;;;;6.65;3.25;;;;;;;24.97;33.12;102059.38;5091365;28;20028;-48
2023/04/03 17:50:06;;;;;;;5.43;3.20;;;;;;;25.00;32.92;102050.69;5094721;28;20109;-44
2023/04/03 17:52:35;;;;;;;6.50;3.10;;;;;;;24.99;32.94;102057.66;5094355;28;20481;-43
2023/04/03 17:55:02;;;;;;;6.97;3.33;;;;;;;25.01;32.96;102062.97;5094663;28;20631;-48
2023/04/03 17:57:31;;;;;;;7.60;3.40;;;;;;;25.06;32.86;102058.75;5092608;28;20028;-49
2023/04/03 17:59:59;;;;;;;5.85;3.65;;;;;;;25.15;32.91;102060.72;5090725;28;20107;-48
2023/04/03 18:02:28;;;;;;;7.90;4.18;;;;;;;25.24;32.54;102055.69;5094019;28;20097;-48
2023/04/03 18:04:57;;;;;;;10.35;3.58;;;;;;;25.18;33.02;102059.03;5094008;28;20153;-49
2023/04/03 18:07:25;;;;;;;8.18;4.47;;;;;;;25.24;32.67;102058.31;5090722;28;20120;-49
2023/04/03 18:09:54;;;;;;;7.63;4.32;;;;;;;25.21;32.98;102055.59;5092559;28;20035;-48
2023/04/03 18:12:22;;;;;;;7.70;4.00;;;;;;;25.25;32.71;102059.19;5094291;28;20047;-48
2023/04/03 18:14:50;;;;;;;7.57;3.30;;;;;;;25.26;33.42;102059.22;5093674;28;20028;-49
2023/04/03 18:17:19;;;;;;;11.07;3.22;;;;;;;25.15;33.45;102058.09;5091763;28;20363;-52
2023/04/03 18:19:47;;;;;;;5.80;3.35;;;;;;;25.15;33.61;102058.97;5093875;28;20031;-43
2023/04/03 18:22:19;;;;;;;7.60;3.25;;;;;;;25.13;33.37;102055.41;5093903;28;20031;-49
2023/04/03 18:24:49;;;;;;;6.60;3.70;;;;;;;25.18;33.18;102051.16;5093759;28;20028;-48
2023/04/03 18:27:19;;;;;;;7.18;3.40;;;;;;;25.17;33.59;102051.09;5091666;28;20028;-48
2023/04/03 18:29:52;;;;;;;7.05;3.38;;;;;;;25.18;33.46;102048.53;5093798;28;20028;-51
2023/04/03 18:32:20;;;;;;;4.65;3.38;;;;;;;25.21;33.39;102055.59;5093943;28;20064;-47
2023/04/03 18:34:49;;;;;;;8.63;3.65;;;;;;;25.16;33.41;102060.75;5092692;28;20031;-48
2023/04/03 18:37:17;;;;;;;5.72;3.00;;;;;;;25.14;33.54;102061.56;5094370;28;20358;-50
2023/04/03 18:39:46;;;;;;;5.88;3.63;;;;;;;25.13;33.66;102059.78;5094446;28;20035;-47
2023/04/03 18:42:16;;;;;;;6.28;3.17;;;;;;;25.16;33.31;102059.84;5093235;28;20343;-50
2023/04/03 18:44:48;;;;;;;5.60;3.25;;;;;;;25.20;33.32;102058.19;5092584;28;20032;-48
2023/04/03 18:47:16;;;;;;;5.50;3.47;;;;;;;25.21;33.26;102063.47;5093222;28;20036;-48
2023/04/03 18:49:45;;;;;;;7.35;3.83;;;;;;;25.06;33.68;102063.09;5094367;28;20024;-50
2023/04/03 18:52:13;;;;;;;6.45;3.35;;;;;;;25.11;33.61;102056.22;5092730;28;20032;-52
2023/04/03 18:54:41;;;;;;;6.80;4.03;;;;;;;25.13;33.47;102058.03;5092912;28;20024;-49
2023/04/03 18:57:09;;;;;;;6.18;4.22;;;;;;;25.05;33.70;102061.31;5094242;28;20028;-48
2023/04/03 18:59:37;;;;;;;6.00;4.05;;;;;;;25.00;33.81;102066.44;5093864;28;20077;-47
2023/04/03 19:02:06;;;;;;;9.75;4.63;;;;;;;24.99;33.70;102065.53;5094053;28;20020;-43
2023/04/03 19:04:36;;;;;;;5.95;3.80;;;;;;;24.95;33.89;102062.81;5094009;28;20024;-42
2023/04/03 19:07:05;;;;;;;6.80;4.53;;;;;;;25.02;33.72;102056.88;5093587;28;20473;-45
2023/04/03 19:09:33;;;;;;;6.25;4.43;;;;;;;25.05;33.75;102061.31;5094129;28;20024;-47
2023/04/03 19:12:01;;;;;;;5.88;4.00;;;;;;;25.06;33.64;102064.00;5092375;28;20085;-47
2023/04/03 19:14:30;;;;;;;9.00;3.92;;;;;;;25.06;33.67;102065.72;5092613;28;20032;-48
2023/04/03 19:16:59;;;;;;;7.80;4.32;;;;;;;25.05;33.92;102064.84;5093359;28;20070;-45
2023/04/03 19:19:27;;;;;;;7.40;3.72;;;;;;;25.06;33.91;102068.34;5093872;28;20380;-45
2023/04/03 19:21:55;;;;;;;7.15;3.95;;;;;;;24.98;33.82;102071.66;5093286;28;20513;-49
2023/04/03 19:24:24;;;;;;;7.38;3.83;;;;;;;25.07;33.74;102073.63;5093761;28;20028;-47
2023/04/03 19:26:52;;;;;;;5.95;3.42;;;;;;;25.09;33.58;102069.28;5091827;28;20031;-46
2023/04/03 19:29:20;;;;;;;5.95;3.75;;;;;;;25.06;33.75;102069.25;5093658;28;20040;-47
2023/04/03 19:31:49;;;;;;;6.22;3.78;;;;;;;25.03;33.69;102079.66;5093347;28;20473;-48
2023/04/03 19:34:18;;;;;;;6.70;3.53;;;;;;;25.07;33.96;102083.25;5093611;28;20392;-48
2023/04/03 19:36:48;;;;;;;5.32;3.35;;;;;;;25.10;33.95;102084.19;5093391;28;20442;-50
2023/04/03 19:39:16;;;;;;;5.80;3.05;;;;;;;25.11;33.89;102092.97;5093373;28;20081;-44
2023/04/03 19:41:45;;;;;;;4.85;2.97;;;;;;;25.06;33.48;102090.25;5093184;28;20035;-46
2023/04/03 19:44:14;;;;;;;5.45;3.08;;;;;;;24.94;33.82;102093.44;5093551;28;20447;-43
2023/04/03 19:46:43;;;;;;;5.03;2.92;;;;;;;24.73;34.24;102086.75;5092056;28;20032;-48
2023/04/03 19:49:11;;;;;;;5.38;2.90;;;;;;;24.71;34.59;102092.81;5092089;28;20027;-43
2023/04/03 19:51:40;;;;;;;4.20;2.88;;;;;;;24.92;34.10;102091.59;5093121;28;20027;-47
2023/04/03 19:54:09;;;;;;;5.57;3.55;;;;;;;25.03;33.95;102095.41;5092011;28;20101;-45
2023/04/03 19:56:37;;;;;;;6.40;3.97;;;;;;;25.09;33.56;102092.06;5093203;28;20028;-49
2023/04/03 19:59:06;;;;;;;7.78;3.40;;;;;;;24.86;33.79;102093.22;5091850;28;20496;-46
2023/04/03 20:01:35;;;;;;;5.22;3.35;;;;;;;24.76;34.38;102099.03;5093218;28;20036;-46
2023/04/03 20:04:03;;;;;;;8.55;3.47;;;;;;;24.84;34.00;102101.88;5092671;28;20052;-43
